Latest Weather Observations for Forbes

IDN60801

Issued at 3:35 pm EST Thursday 24 April 2014 (issued every 30 minutes, with the page automatically refreshed every 10 minutes)

About weather observations | Map of weather stations | Latest weather observations for NSW | Other Formats
Station Details ID: 065103 Name: FORBES AIRPORT AWS Lat: -33.36 Lon: 147.92 Height: 230.4 m
Data from the previous 72 hours. | See also: Recent months at Forbes
Date/Time
EST
Temp
°C
App
Temp
°C
Dew
Point
Rel
Hum
%
Delta-T
°C
Wind Press
QNH
hPa
Press
MSL
hPa
Rain
since 9 am
mm
Dir
 
Spd
km/h
Gust
km/h
Spd
kts
Gust
kts
24/03:30pm 24.9 21.8 10.4 40 8.1 SSW 17 24 9 13 1014.2 - 0.0
24/03:00pm 25.1 22.7 11.3 42 7.9 SSW 15 28 8 15 1014.2 1013.7 0.0
24/02:30pm 25.1 22.3 11.3 42 7.9 S 17 20 9 11 1014.1 - 0.0
24/02:00pm 25.4 21.8 10.4 39 8.4 SW 20 28 11 15 1014.2 1013.7 0.0
24/01:30pm 25.3 22.1 10.0 38 8.5 SW 17 24 9 13 1014.3 - 0.0
24/01:00pm 25.0 22.2 10.1 39 8.3 SSW 15 28 8 15 1014.5 1014.0 0.0
24/12:30pm 24.9 21.8 7.1 32 9.4 SW 13 19 7 10 1014.8 - 0.0
24/12:00pm 24.6 20.7 7.3 33 9.2 WSW 17 24 9 13 1015.1 1014.6 0.0
24/11:30am 23.2 19.3 6.9 35 8.5 WSW 17 22 9 12 1015.5 - 0.0
24/11:00am 21.7 18.6 7.2 39 7.5 SW 13 20 7 11 1016.0 1015.6 0.0
24/10:30am 21.2 18.5 9.1 46 6.5 SW 13 19 7 10 1016.3 - 0.0
24/10:00am 20.8 17.8 7.8 43 6.8 WSW 13 17 7 9 1016.1 1015.7 0.0
24/09:30am 19.8 17.1 7.5 45 6.4 NW 11 15 6 8 1016.0 - 0.0
24/09:00am 18.2 16.6 8.7 54 5.0 NW 7 11 4 6 1016.0 1015.6 0.0
24/08:30am 15.9 13.5 7.1 56 4.4 N 9 11 5 6 1015.7 - 0.0
24/08:00am 15.6 14.8 6.6 55 4.4 CALM 0 0 0 0 1015.2 1014.7 0.0
24/07:30am 12.9 10.9 7.1 68 2.8 NE 7 7 4 4 1014.8 - 0.0
24/07:00am 10.2 7.9 5.8 74 2.1 NNE 7 11 4 6 1014.4 1013.9 0.0
24/06:30am 9.3 7.0 5.7 78 1.7 NNE 7 9 4 5 1014.2 - 0.0
24/06:00am 10.0 7.3 5.8 75 2.0 N 9 13 5 7 1013.9 1013.4 0.0
24/05:30am 11.3 8.8 6.4 72 2.3 NNE 9 11 5 6 1013.7 - 0.0
24/05:00am 11.3 9.3 6.2 71 2.4 NE 6 7 3 4 1013.6 1013.1 0.0
24/04:30am 10.9 8.4 6.6 75 2.1 NE 9 11 5 6 1013.6 - 0.0
24/04:00am 11.3 8.1 6.8 74 2.2 NNE 13 15 7 8 1013.6 1013.1 0.0
24/03:30am 11.4 9.5 6.7 73 2.3 NNE 6 7 3 4 1013.7 - 0.0
24/03:00am 11.2 8.0 6.9 75 2.1 NNE 13 15 7 8 1013.7 1013.2 0.0
24/02:30am 11.6 8.9 7.3 75 2.1 NNE 11 13 6 7 1014.1 - 0.0
24/02:00am 11.9 9.5 7.2 73 2.3 NNE 9 11 5 6 1014.4 1013.9 0.0
24/01:30am 12.0 9.3 7.5 74 2.2 NNE 11 13 6 7 1014.6 - 0.0
24/01:00am 12.0 9.8 7.9 76 2.0 NNE 9 11 5 6 1014.6 1014.1 0.0
24/12:30am 12.0 9.7 7.3 73 2.3 N 9 11 5 6 1014.8 - 0.0
24/12:00am 12.0 9.0 7.7 75 2.1 NNE 13 15 7 8 1014.8 1014.3 0.0
 
Date/Time
EST
Temp
°C
App
Temp
°C
Dew
Point
Rel
Hum
%
Delta-T
°C
Wind Press
QNH
hPa
Press
MSL
hPa
Rain
since 9 am
mm
Dir
 
Spd
km/h
Gust
km/h
Spd
kts
Gust
kts
23/11:30pm 12.4 9.8 7.9 74 2.2 N 11 13 6 7 1015.0 - 0.0
23/11:00pm 13.0 10.9 8.1 72 2.5 N 9 11 5 6 1015.2 1014.7 0.0
23/10:30pm 13.0 10.2 8.5 74 2.3 N 13 15 7 8 1015.2 - 0.0
23/10:00pm 13.0 10.7 8.9 76 2.1 NNE 11 13 6 7 1015.5 1015.0 0.0
23/09:30pm 13.3 11.3 8.8 74 2.3 N 9 11 5 6 1015.4 - 0.0
23/09:00pm 13.6 11.3 8.9 73 2.4 NNE 11 13 6 7 1015.4 1014.9 0.0
23/08:30pm 14.9 13.0 9.1 68 3.0 NNE 9 11 5 6 1015.4 - 0.0
23/08:00pm 15.3 13.4 9.0 66 3.3 N 9 9 5 5 1015.4 1014.9 0.0
23/07:30pm 16.4 14.6 9.6 64 3.6 N 9 11 5 6 1015.4 - 0.0
23/07:00pm 16.6 14.4 9.5 63 3.7 NNE 11 13 6 7 1015.3 1014.8 0.0
23/06:30pm 17.4 15.3 9.6 60 4.1 N 11 11 6 6 1015.2 - 0.0
23/06:00pm 19.2 16.8 8.5 50 5.6 N 11 13 6 7 1015.1 1014.6 0.0
23/05:30pm 20.7 18.3 8.7 46 6.4 N 11 13 6 7 1014.8 - 0.0
23/05:00pm 24.9 23.0 7.5 33 9.3 NW 7 13 4 7 1014.8 1014.3 0.0
23/04:30pm 25.6 23.7 7.7 32 9.6 NNW 7 13 4 7 1014.7 - 0.0
23/04:00pm 26.1 24.3 8.1 32 9.8 N 7 15 4 8 1014.6 1014.1 0.0
23/03:30pm 25.5 23.5 7.1 31 9.8 WNW 7 15 4 8 1014.8 - 0.0
23/03:00pm 26.9 24.8 8.4 31 10.1 WSW 9 17 5 9 1014.8 1014.3 0.0
23/02:30pm 26.5 23.6 8.0 31 10.0 WNW 13 19 7 10 1015.0 - 0.0
23/02:00pm 26.3 24.5 7.8 31 10.0 WNW 7 17 4 9 1015.0 1014.5 0.0
23/01:30pm 26.7 26.4 10.0 35 9.4 NE 2 13 1 7 1015.4 - 0.0
23/01:00pm 25.4 24.1 9.3 36 8.9 SSW 6 11 3 6 1015.8 1015.4 0.0
23/12:30pm 25.1 23.4 7.7 33 9.3 NW 6 11 3 6 1016.4 - 0.0
23/12:00pm 24.5 22.5 8.5 36 8.6 NE 9 13 5 7 1016.9 1016.5 0.0
23/11:30am 24.0 22.6 8.8 38 8.2 N 6 11 3 6 1017.4 - 0.0
23/11:00am 22.4 21.0 9.6 44 7.0 NNE 7 15 4 8 1017.9 1017.4 0.0
23/10:30am 21.2 19.6 8.8 45 6.6 NNE 7 13 4 7 1018.4 - 0.0
23/10:00am 19.3 18.3 10.3 56 4.9 ENE 6 11 3 6 1018.5 1018.0 0.0
23/09:30am 17.4 16.2 10.3 63 3.8 ENE 7 13 4 7 1018.6 - 0.0
23/09:00am 15.3 13.9 9.7 69 2.9 ENE 7 9 4 5 1018.7 1018.2 0.0
23/08:30am 13.9 13.0 9.3 74 2.4 ENE 4 7 2 4 1018.9 - 0.0
23/08:00am 12.1 10.5 10.2 88 1.0 ENE 9 13 5 7 1018.7 1018.2 0.0
23/07:30am 9.6 7.6 8.8 95 0.4 E 9 13 5 7 1018.5 - 0.0
23/07:00am 6.5 4.8 6.1 97 0.2 ENE 4 9 2 5 1018.5 1018.0 0.0
23/06:30am 6.2 4.1 5.6 96 0.3 ENE 6 9 3 5 1018.1 - 0.0
23/06:00am 6.6 4.5 6.0 96 0.3 SSE 6 7 3 4 1018.0 1017.5 0.0
23/05:30am 6.7 5.8 6.0 95 0.3 CALM 0 0 0 0 1017.7 - 0.0
23/05:00am 7.3 6.5 6.7 96 0.3 CALM 0 0 0 0 1017.5 1017.1 0.0
23/04:30am 7.6 5.2 7.0 96 0.3 E 9 9 5 5 1017.2 - 0.0
23/04:00am 7.1 4.9 6.4 95 0.3 E 7 11 4 6 1017.0 1016.6 0.0
23/03:30am 7.3 5.4 6.7 96 0.3 SE 6 7 3 4 1017.1 - 0.0
23/03:00am 7.4 6.6 6.7 95 0.3 CALM 0 0 0 0 1017.1 1016.7 0.0
23/02:30am 7.5 5.6 6.6 94 0.4 E 6 7 3 4 1017.1 - 0.0
23/02:00am 7.4 4.8 6.3 93 0.5 ENE 9 13 5 7 1017.2 1016.8 0.0
23/01:30am 7.7 5.8 6.5 92 0.6 ENE 6 9 3 5 1017.4 - 0.0
23/01:00am 7.8 5.3 6.7 93 0.5 ENE 9 11 5 6 1017.6 1017.2 0.0
23/12:30am 8.4 7.7 7.0 91 0.7 CALM 0 0 0 0 1017.9 - 0.0
23/12:00am 9.1 8.5 7.5 90 0.8 CALM 0 0 0 0 1018.0 1017.5 0.0
 
Date/Time
EST
Temp
°C
App
Temp
°C
Dew
Point
Rel
Hum
%
Delta-T
°C
Wind Press
QNH
hPa
Press
MSL
hPa
Rain
since 9 am
mm
Dir
 
Spd
km/h
Gust
km/h
Spd
kts
Gust
kts
22/11:30pm 9.7 9.1 7.6 87 1.0 CALM 0 0 0 0 1018.0 - 0.0
22/11:00pm 9.5 8.9 7.4 87 1.0 CALM 0 0 0 0 1018.4 1017.9 0.0
22/10:30pm 9.7 9.1 7.5 86 1.1 CALM 0 0 0 0 1018.5 - 0.0
22/10:00pm 10.0 9.4 7.4 84 1.3 CALM 0 0 0 0 1018.7 1018.2 0.0
22/09:30pm 10.5 10.0 7.9 84 1.3 CALM 0 0 0 0 1018.6 - 0.0
22/09:00pm 10.6 8.7 7.7 82 1.4 E 7 9 4 5 1018.7 1018.2 0.0
22/08:30pm 10.8 8.9 7.7 81 1.5 ENE 7 11 4 6 1018.4 - 0.0
22/08:00pm 11.5 9.6 7.6 77 1.9 NE 7 9 4 5 1018.3 1017.8 0.0
22/07:30pm 12.2 10.1 8.1 76 2.0 ENE 9 11 5 6 1018.2 - 0.0
22/07:00pm 13.4 11.7 8.3 71 2.6 NE 7 9 4 5 1018.2 1017.7 0.0
22/06:30pm 15.2 15.0 9.1 67 3.2 CALM 0 0 0 0 1017.9 - 0.0
22/06:00pm 16.1 14.5 8.8 62 3.8 ENE 7 11 4 6 1017.2 1016.8 0.0
22/05:30pm 19.1 17.8 9.3 53 5.2 E 6 9 3 5 1017.1 - 0.0
22/05:00pm 21.4 21.3 9.6 47 6.4 CALM 0 0 0 0 1017.0 1016.6 0.0
22/04:30pm 22.1 20.8 7.5 39 7.7 WSW 4 9 2 5 1016.9 - 0.0
22/04:00pm 22.0 19.7 7.4 39 7.6 WSW 9 15 5 8 1017.0 1016.6 0.0
22/03:30pm 22.9 21.3 7.8 38 8.0 W 6 15 3 8 1017.0 - 0.0
22/03:00pm 22.9 20.2 7.4 37 8.1 W 11 17 6 9 1017.0 1016.6 0.0
22/02:30pm 23.0 20.7 7.5 37 8.2 WNW 9 17 5 9 1017.1 - 0.0
22/02:00pm 22.0 18.8 7.0 38 7.8 W 13 22 7 12 1017.1 1016.7 0.0
22/01:30pm 21.9 18.9 7.7 40 7.5 WNW 13 22 7 12 1017.5 - 0.0
22/01:00pm 21.8 18.9 8.0 41 7.3 W 13 19 7 10 1018.0 1017.5 0.0
22/12:30pm 21.2 18.7 8.1 43 6.9 WNW 11 17 6 9 1018.5 - 0.0
22/12:00pm 21.3 19.0 7.5 41 7.2 NW 9 19 5 10 1019.0 1018.5 0.0
22/11:30am 21.0 18.6 8.6 45 6.6 NW 11 19 6 10 1019.3 - 0.0
22/11:00am 19.4 16.6 8.7 50 5.6 NNW 13 19 7 10 1019.7 1019.3 0.0
22/10:30am 18.6 16.7 9.1 54 5.0 N 9 15 5 8 1020.0 - 0.0
22/10:00am 16.2 14.8 8.9 62 3.8 N 6 9 3 5 1020.1 1019.7 0.0
22/09:30am 14.2 14.3 10.0 76 2.2 CALM 0 0 0 0 1020.4 - 0.0
22/09:00am 11.7 11.2 9.4 86 1.2 E 2 7 1 4 1020.4 1020.0 0.0
22/08:30am 9.6 8.0 8.2 91 0.7 ESE 6 9 3 5 1020.1 - 0.0
22/08:00am 8.7 8.2 7.9 95 0.4 CALM 0 0 0 0 1020.2 1019.8 0.0
22/07:30am 7.0 6.3 6.9 99 0.0 CALM 0 0 0 0 1019.9 - 0.0
22/07:00am 5.5 3.1 5.2 98 0.1 S 7 7 4 4 1019.4 1019.0 0.0
22/06:30am 5.3 4.2 4.9 97 0.2 CALM 0 0 0 0 1019.1 - 0.0
22/06:00am 5.5 4.4 5.2 98 0.1 CALM 0 0 0 0 1019.1 1018.6 0.0
22/05:30am 5.2 4.0 4.6 96 0.3 CALM 0 0 0 0 1019.2 - 0.0
22/05:00am 5.2 4.0 4.5 95 0.3 CALM 0 0 0 0 1019.3 1018.8 0.0
22/04:30am 5.5 4.3 4.8 95 0.3 CALM 0 0 0 0 1019.0 - 0.0
22/04:00am 5.9 4.8 5.2 95 0.3 CALM 0 0 0 0 1018.8 1018.3 0.0
22/03:30am 6.1 3.7 5.4 95 0.3 SSE 7 9 4 5 1018.5 - 0.0
22/03:00am 6.0 3.8 5.1 94 0.4 E 6 7 3 4 1018.7 1018.2 0.0
22/02:30am 6.1 3.9 5.2 94 0.4 E 6 7 3 4 1019.0 - 0.0
22/02:00am 6.5 5.4 5.3 92 0.5 CALM 0 0 0 0 1019.2 1018.7 0.0
22/01:30am 6.7 4.5 5.5 92 0.5 E 6 7 3 4 1019.5 - 0.0
22/01:00am 6.7 5.6 5.3 91 0.6 CALM 0 0 0 0 1019.8 1019.4 0.0
22/12:30am 7.3 6.3 5.8 90 0.7 CALM 0 0 0 0 1020.0 - 0.0
22/12:00am 7.3 6.4 5.9 91 0.6 CALM 0 0 0 0 1020.1 1019.7 0.0
 
Date/Time
EST
Temp
°C
App
Temp
°C
Dew
Point
Rel
Hum
%
Delta-T
°C
Wind Press
QNH
hPa
Press
MSL
hPa
Rain
since 9 am
mm
Dir
 
Spd
km/h
Gust
km/h
Spd
kts
Gust
kts
21/11:30pm 7.4 6.4 5.5 88 0.9 CALM 0 0 0 0 1020.3 - 0.0
21/11:00pm 7.6 6.6 5.6 87 0.9 CALM 0 0 0 0 1020.4 1020.0 0.0
21/10:30pm 7.7 6.7 5.5 86 1.0 CALM 0 0 0 0 1020.7 - 0.0
21/10:00pm 8.3 6.2 5.9 85 1.1 N 6 9 3 5 1020.9 1020.5 0.0
21/09:30pm 8.2 5.9 5.8 85 1.1 ENE 7 9 4 5 1020.6 - 0.0
21/09:00pm 8.7 7.4 6.0 83 1.2 NNE 2 9 1 5 1020.6 1020.2 0.0
21/08:30pm 9.3 7.3 6.4 82 1.4 NE 6 7 3 4 1020.5 - 0.0
21/08:00pm 10.3 9.6 7.0 80 1.6 CALM 0 0 0 0 1020.4 1020.0 0.0
21/07:30pm 11.1 10.3 6.6 74 2.2 CALM 0 6 0 3 1020.4 - 0.0
21/07:00pm 11.9 10.0 7.6 75 2.1 SE 7 9 4 5 1020.1 1019.7 0.0
21/06:30pm 12.2 10.0 6.3 67 2.8 ESE 7 7 4 4 1019.9 - 0.0
21/06:00pm 13.5 12.7 6.4 62 3.4 CALM 0 0 0 0 1019.7 1019.3 0.0
21/05:30pm 16.2 15.3 6.1 51 5.0 CALM 0 0 0 0 1019.7 - 0.0
21/05:00pm 17.7 16.4 5.9 46 5.8 SSW 2 6 1 3 1019.5 1019.1 0.0
21/04:30pm 18.8 16.0 5.3 41 6.6 SSW 9 13 5 7 1019.4 - 0.0
21/04:00pm 19.2 16.6 6.0 42 6.6 SW 9 15 5 8 1019.3 1018.8 0.0

Other Formats:

Comma delimited format used in spreadsheet applications
http://www.bom.gov.au/fwo/IDN60801/IDN60801.94715.axf

JavaScript Object Notation format (JSON) in row-major order
http://www.bom.gov.au/fwo/IDN60801/IDN60801.94715.json